Terminal Aerodrome Forecast
Issued by NWS Charleston, WV

Current Version | Previous Version | Graphics & Text | Print | Product List | Glossary On
Versions: 1 2 3 4 5 6 7 8 9 10 11 12 13 14 15 16 17 18 19 20 21 22
000
FTUS41 KRLX 160800 AAA
TAFPKB
TAF AMD
KPKB 160837Z 1609/1706 12006KT P6SM BKN250
     FM161400 15008G15KT P6SM -SHRA OVC060
     FM161700 16006KT P6SM OVC045
     FM162200 16006KT P6SM -SHRA BKN045
     FM170000 16005KT P6SM OVC040=

USA.gov is the U.S. government's official web portal to all federal, state and local government web resources and services.